createdAt,value
2019-03-31T00:01:39.070Z,33.73
2019-03-31T00:04:07.865Z,34.87
2019-03-31T00:06:36.677Z,36.93
2019-03-31T00:09:06.854Z,37.97
2019-03-31T00:11:35.575Z,36.63
2019-03-31T00:14:04.435Z,36.50
2019-03-31T00:16:33.248Z,37.60
2019-03-31T00:19:01.961Z,37.13
2019-03-31T00:21:30.698Z,37.07
2019-03-31T00:23:59.434Z,37.90
2019-03-31T00:26:28.235Z,38.03
2019-03-31T00:28:56.956Z,39.53
2019-03-31T00:31:25.768Z,40.87
2019-03-31T00:33:54.540Z,40.10
2019-03-31T00:36:23.284Z,38.60
2019-03-31T00:38:52.010Z,40.77
2019-03-31T00:41:20.741Z,41.47
2019-03-31T00:43:49.458Z,39.47
2019-03-31T00:46:18.197Z,40.30
2019-03-31T00:48:47.003Z,42.10
2019-03-31T00:51:15.745Z,43.80
2019-03-31T00:53:44.465Z,45.00
2019-03-31T00:56:13.271Z,45.23
2019-03-31T00:58:41.981Z,44.80
2019-03-31T01:01:10.730Z,46.53
2019-03-31T01:03:39.649Z,46.27
2019-03-31T01:06:08.487Z,47.50
2019-03-31T01:08:37.204Z,47.60
2019-03-31T01:11:09.019Z,46.87
2019-03-31T01:13:37.822Z,50.90
2019-03-31T01:16:06.737Z,50.77
2019-03-31T01:18:35.674Z,49.20
2019-03-31T01:21:04.459Z,49.87
2019-03-31T01:23:33.478Z,50.13
2019-03-31T01:26:02.440Z,50.23
2019-03-31T01:28:31.608Z,51.40
2019-03-31T01:31:00.459Z,51.40
2019-03-31T01:33:29.272Z,52.33
2019-03-31T01:35:57.987Z,51.17
2019-03-31T01:38:26.798Z,53.33
2019-03-31T01:40:55.592Z,53.93
2019-03-31T01:43:24.332Z,52.07
2019-03-31T01:45:53.211Z,52.60
2019-03-31T01:48:21.958Z,52.93
2019-03-31T01:50:50.688Z,54.33
2019-03-31T01:53:19.446Z,50.27
2019-03-31T01:55:48.255Z,53.80
2019-03-31T01:58:16.995Z,50.17
2019-03-31T02:00:45.792Z,53.40
2019-03-31T02:03:14.531Z,53.63
2019-03-31T02:05:43.257Z,51.23
2019-03-31T02:08:12.076Z,56.27
2019-03-31T02:10:40.979Z,55.53
2019-03-31T02:13:09.766Z,55.40
2019-03-31T02:15:38.486Z,52.10
2019-03-31T02:18:07.340Z,54.97
2019-03-31T02:20:36.076Z,53.27
2019-03-31T02:23:04.870Z,55.03
2019-03-31T02:25:33.699Z,55.17
2019-03-31T02:28:02.490Z,53.67
2019-03-31T02:30:31.239Z,53.30
2019-03-31T02:32:59.959Z,52.53
2019-03-31T02:35:28.696Z,55.80
2019-03-31T02:37:57.422Z,55.80
2019-03-31T02:40:26.152Z,54.30
2019-03-31T02:42:54.933Z,57.73
2019-03-31T02:45:23.680Z,54.87
2019-03-31T02:47:52.444Z,53.80
2019-03-31T02:50:35.928Z,55.63
2019-03-31T02:53:04.776Z,53.53
2019-03-31T02:55:33.952Z,57.40
2019-03-31T02:58:03.212Z,58.30
2019-03-31T03:00:32.092Z,57.37
2019-03-31T03:03:02.951Z,59.13
2019-03-31T03:05:34.324Z,57.13
2019-03-31T03:08:03.576Z,53.23
2019-03-31T03:10:33.557Z,55.57
2019-03-31T03:13:02.803Z,54.90
2019-03-31T03:15:34.626Z,56.07
2019-03-31T03:18:03.480Z,55.50
2019-03-31T03:20:32.360Z,58.77
2019-03-31T03:23:01.110Z,56.97
2019-03-31T03:25:29.826Z,58.37
2019-03-31T03:27:58.556Z,59.17
2019-03-31T03:30:27.327Z,59.50
2019-03-31T03:33:15.506Z,58.23
2019-03-31T03:35:26.621Z,60.13
2019-03-31T03:37:55.415Z,58.17
2019-03-31T03:40:24.133Z,57.30
2019-03-31T03:42:52.952Z,58.67
2019-03-31T03:45:21.669Z,59.03
2019-03-31T03:47:50.407Z,60.47
2019-03-31T03:50:19.165Z,60.83
2019-03-31T03:52:47.938Z,59.97
2019-03-31T03:55:16.723Z,60.97
2019-03-31T03:57:45.478Z,60.37
2019-03-31T04:00:14.386Z,56.83
2019-03-31T04:02:43.128Z,59.70
2019-03-31T04:05:11.905Z,63.20
2019-03-31T04:07:40.744Z,62.40
2019-03-31T04:10:42.396Z,60.53
2019-03-31T04:13:11.197Z,61.40
2019-03-31T04:15:39.928Z,61.23
2019-03-31T04:18:08.888Z,61.40
2019-03-31T04:20:39.420Z,59.70
2019-03-31T04:23:08.211Z,59.63
2019-03-31T04:25:36.999Z,59.53
2019-03-31T04:28:05.735Z,61.77
2019-03-31T04:30:34.452Z,57.40
2019-03-31T04:33:03.250Z,61.80
2019-03-31T04:35:31.998Z,63.60
2019-03-31T04:38:00.742Z,61.63
2019-03-31T04:40:29.585Z,66.13
2019-03-31T04:42:58.364Z,59.00
2019-03-31T04:45:27.200Z,60.00
2019-03-31T04:47:56.013Z,61.67
2019-03-31T04:50:24.720Z,61.03
2019-03-31T04:52:53.452Z,65.27
2019-03-31T04:55:22.242Z,63.67
2019-03-31T04:57:51.054Z,66.93
2019-03-31T05:00:19.761Z,64.20
2019-03-31T05:02:48.471Z,69.53
2019-03-31T05:05:17.217Z,65.90
2019-03-31T05:07:45.932Z,64.53
2019-03-31T05:10:14.890Z,64.97
2019-03-31T05:12:43.746Z,63.60
2019-03-31T05:15:12.626Z,66.57
2019-03-31T05:17:41.346Z,67.40
2019-03-31T05:20:10.367Z,66.90
2019-03-31T05:22:39.665Z,62.67
2019-03-31T05:25:08.570Z,67.30
2019-03-31T05:27:37.412Z,65.47
2019-03-31T05:30:06.464Z,63.27
2019-03-31T05:32:35.184Z,65.60
2019-03-31T05:35:04.771Z,67.47
2019-03-31T05:37:33.481Z,62.97
2019-03-31T05:40:03.110Z,65.63
2019-03-31T05:42:31.865Z,63.20
2019-03-31T05:45:00.661Z,63.70
2019-03-31T05:47:29.385Z,63.50
2019-03-31T05:49:58.198Z,62.83
2019-03-31T05:52:26.907Z,64.77
2019-03-31T05:54:55.638Z,60.20
2019-03-31T05:57:24.386Z,53.90
2019-03-31T05:59:53.246Z,60.40
2019-03-31T06:02:21.963Z,62.93
2019-03-31T06:04:50.836Z,55.43
2019-03-31T06:07:19.593Z,52.67
2019-03-31T06:09:48.361Z,52.33
2019-03-31T06:12:17.100Z,52.43
2019-03-31T06:14:45.910Z,51.67
2019-03-31T06:17:14.739Z,54.47
2019-03-31T06:19:43.462Z,50.07
2019-03-31T06:22:12.201Z,50.83
2019-03-31T06:24:40.927Z,49.73
2019-03-31T06:27:09.666Z,50.23
2019-03-31T06:29:38.460Z,44.10
2019-03-31T06:32:07.299Z,44.70
2019-03-31T06:34:46.663Z,43.57
2019-03-31T06:37:06.453Z,39.00
2019-03-31T06:39:35.167Z,39.57
2019-03-31T06:42:04.036Z,41.97
2019-03-31T06:44:32.755Z,38.50
2019-03-31T06:47:01.524Z,42.07
2019-03-31T06:49:30.290Z,36.37
2019-03-31T06:51:59.027Z,27.57
2019-03-31T06:54:27.885Z,35.57
2019-03-31T06:56:56.656Z,36.67
2019-03-31T06:59:25.362Z,35.53
2019-03-31T07:01:54.230Z,39.10
2019-03-31T07:04:23.076Z,37.63
2019-03-31T07:06:52.204Z,40.80
2019-03-31T07:09:21.262Z,40.50
2019-03-31T07:11:50.044Z,41.03
2019-03-31T07:14:18.846Z,24.37
2019-03-31T07:16:47.554Z,33.47
2019-03-31T07:19:16.326Z,39.33
2019-03-31T07:21:45.023Z,32.43
2019-03-31T07:24:13.859Z,41.20
2019-03-31T07:26:42.587Z,39.30
2019-03-31T07:29:11.326Z,41.00
2019-03-31T07:31:40.037Z,36.37
2019-03-31T07:34:08.848Z,39.23
2019-03-31T07:36:37.580Z,35.33
2019-03-31T07:39:06.696Z,37.37
2019-03-31T07:41:36.205Z,31.80
2019-03-31T07:44:05.154Z,36.70
2019-03-31T07:46:33.898Z,34.03
2019-03-31T07:49:02.631Z,33.60
2019-03-31T07:51:31.345Z,28.50
2019-03-31T07:54:00.119Z,33.00
2019-03-31T07:56:28.904Z,28.03
2019-03-31T07:58:57.735Z,38.90
2019-03-31T08:01:26.605Z,27.80
2019-03-31T08:03:55.410Z,39.17
2019-03-31T08:06:24.221Z,35.57
2019-03-31T08:08:53.450Z,30.33
2019-03-31T08:11:22.372Z,41.00
2019-03-31T08:13:51.154Z,33.97
2019-03-31T08:16:19.883Z,42.00
2019-03-31T08:18:48.638Z,41.23
2019-03-31T08:21:17.376Z,25.40
2019-03-31T08:23:46.163Z,39.30
2019-03-31T08:26:15.045Z,43.30
2019-03-31T08:28:43.795Z,36.60
2019-03-31T08:31:12.635Z,40.53
2019-03-31T08:33:41.365Z,37.00
2019-03-31T08:36:10.166Z,35.03
2019-03-31T08:38:38.947Z,37.83
2019-03-31T08:41:07.673Z,43.80
2019-03-31T08:43:36.388Z,39.43
2019-03-31T08:46:05.129Z,44.17
2019-03-31T08:48:33.924Z,44.57
2019-03-31T08:51:02.689Z,36.90
2019-03-31T08:53:31.403Z,33.77
2019-03-31T08:56:00.205Z,40.80
2019-03-31T08:58:28.913Z,36.80
2019-03-31T09:00:57.755Z,38.03
2019-03-31T09:03:26.469Z,39.33
2019-03-31T09:06:01.554Z,37.80
2019-03-31T09:08:25.825Z,33.50
2019-03-31T09:10:54.624Z,34.80
2019-03-31T09:13:23.351Z,36.07
2019-03-31T09:15:52.151Z,38.30
2019-03-31T09:18:21.035Z,39.00
2019-03-31T09:20:49.818Z,37.80
2019-03-31T09:23:18.698Z,33.53
2019-03-31T09:25:47.868Z,31.70
2019-03-31T09:28:16.735Z,27.47
2019-03-31T09:30:45.516Z,26.03
2019-03-31T09:33:14.283Z,27.77
2019-03-31T09:35:43.119Z,26.87
2019-03-31T09:38:11.867Z,18.97
2019-03-31T09:40:40.649Z,23.50
2019-03-31T09:43:09.397Z,21.27
2019-03-31T09:45:38.251Z,22.30
2019-03-31T09:48:07.057Z,21.57
2019-03-31T09:50:35.776Z,23.23
2019-03-31T09:53:04.654Z,20.17
2019-03-31T09:55:33.356Z,19.63
2019-03-31T09:58:02.097Z,23.87
2019-03-31T10:00:49.977Z,25.43
2019-03-31T10:03:20.053Z,19.00
2019-03-31T10:05:48.998Z,16.33
2019-03-31T10:08:21.562Z,21.50
2019-03-31T10:10:48.270Z,19.87
2019-03-31T10:13:17.077Z,21.50
2019-03-31T10:15:45.791Z,18.00
2019-03-31T10:18:17.958Z,18.00
2019-03-31T10:20:45.577Z,19.53
2019-03-31T10:23:14.288Z,21.33
2019-03-31T10:25:43.084Z,17.10
2019-03-31T10:28:11.824Z,20.33
2019-03-31T10:30:40.671Z,21.47
2019-03-31T10:33:09.517Z,17.17
2019-03-31T10:35:38.266Z,22.77
2019-03-31T10:38:07.410Z,21.10
2019-03-31T10:40:36.237Z,23.37
2019-03-31T10:43:05.104Z,20.13
2019-03-31T10:45:33.926Z,23.77
2019-03-31T10:48:02.809Z,21.33
2019-03-31T10:50:31.741Z,20.70
2019-03-31T10:53:00.453Z,19.63
2019-03-31T10:55:29.190Z,20.50
2019-03-31T10:57:57.900Z,18.57
2019-03-31T11:00:31.825Z,17.47
2019-03-31T11:03:00.607Z,16.73
2019-03-31T11:05:30.677Z,21.87
2019-03-31T11:07:59.531Z,16.80
2019-03-31T11:10:28.401Z,16.67
2019-03-31T11:12:57.366Z,18.87
2019-03-31T11:15:26.361Z,16.73
2019-03-31T11:17:55.085Z,18.60
2019-03-31T11:20:23.837Z,20.50
2019-03-31T11:22:52.590Z,17.77
2019-03-31T11:25:26.108Z,19.60
2019-03-31T11:27:51.742Z,18.73
2019-03-31T11:30:20.566Z,19.87
2019-03-31T11:32:49.365Z,17.03
2019-03-31T11:35:18.216Z,19.57
2019-03-31T11:37:47.033Z,18.30
2019-03-31T11:40:15.881Z,21.20
2019-03-31T11:42:44.695Z,21.87
2019-03-31T11:45:13.674Z,21.23
2019-03-31T11:47:42.483Z,21.67
2019-03-31T11:50:11.335Z,18.60
2019-03-31T11:52:40.170Z,15.67
2019-03-31T11:55:09.240Z,19.70
2019-03-31T11:57:38.052Z,15.60
2019-03-31T12:00:09.239Z,19.43
2019-03-31T12:02:37.974Z,18.70
2019-03-31T12:05:07.022Z,21.87
2019-03-31T12:07:46.621Z,17.60
2019-03-31T12:10:07.654Z,14.80
2019-03-31T12:12:36.387Z,16.10
2019-03-31T12:15:07.223Z,19.40
2019-03-31T12:17:36.035Z,19.93
2019-03-31T12:20:09.112Z,16.03
2019-03-31T12:22:37.936Z,19.20
2019-03-31T12:25:08.266Z,22.27
2019-03-31T12:27:37.038Z,18.27
2019-03-31T12:30:06.732Z,19.77
2019-03-31T12:32:38.382Z,19.90
2019-03-31T12:35:08.074Z,16.83
2019-03-31T12:37:42.761Z,19.37
2019-03-31T12:40:10.467Z,16.50
2019-03-31T12:42:39.241Z,16.23
2019-03-31T12:45:08.030Z,18.03
2019-03-31T12:47:36.843Z,15.87
2019-03-31T12:50:06.393Z,22.53
2019-03-31T12:52:46.057Z,14.50
2019-03-31T12:55:05.743Z,14.80
2019-03-31T12:57:34.462Z,15.63
2019-03-31T13:00:04.541Z,14.33
2019-03-31T13:02:33.406Z,13.87
2019-03-31T13:05:02.559Z,17.07
2019-03-31T13:07:31.277Z,13.23
2019-03-31T13:10:00.020Z,13.30
2019-03-31T13:12:28.823Z,13.37
2019-03-31T13:14:57.572Z,11.80
2019-03-31T13:17:26.366Z,10.27
2019-03-31T13:19:55.188Z,13.30
2019-03-31T13:22:23.917Z,14.67
2019-03-31T13:24:52.698Z,13.93
2019-03-31T13:27:21.458Z,11.90
2019-03-31T13:29:50.285Z,13.60
2019-03-31T13:32:19.066Z,12.30
2019-03-31T13:34:47.944Z,11.67
2019-03-31T13:37:16.711Z,14.50
2019-03-31T13:39:45.533Z,13.43
2019-03-31T13:42:14.379Z,15.17
2019-03-31T13:44:43.098Z,11.53
2019-03-31T13:47:11.844Z,11.47
2019-03-31T13:49:40.580Z,10.67
2019-03-31T13:52:09.389Z,10.93
2019-03-31T13:54:38.115Z,12.57
2019-03-31T13:57:08.662Z,10.50
2019-03-31T13:59:38.033Z,9.97
2019-03-31T14:02:06.975Z,9.57
2019-03-31T14:04:50.704Z,10.77
2019-03-31T14:07:06.280Z,11.87
2019-03-31T14:09:35.000Z,9.70
2019-03-31T14:12:03.921Z,12.60
2019-03-31T14:14:32.648Z,10.83
2019-03-31T14:17:01.406Z,16.70
2019-03-31T14:19:30.190Z,15.00
2019-03-31T14:21:59.003Z,12.27
2019-03-31T14:24:27.720Z,14.20
2019-03-31T14:26:56.485Z,13.27
2019-03-31T14:29:25.208Z,10.63
2019-03-31T14:31:54.091Z,13.87
2019-03-31T14:34:22.878Z,14.93
2019-03-31T14:36:51.698Z,11.67
2019-03-31T14:39:20.404Z,13.47
2019-03-31T14:41:49.191Z,10.13
2019-03-31T14:44:18.014Z,10.47
2019-03-31T14:46:46.736Z,8.50
2019-03-31T14:49:15.485Z,13.87
2019-03-31T14:51:44.199Z,12.83
2019-03-31T14:54:13.031Z,11.27
2019-03-31T14:56:41.776Z,10.53
2019-03-31T14:59:10.585Z,11.97
2019-03-31T15:01:39.319Z,12.07
2019-03-31T15:04:08.209Z,8.57
2019-03-31T15:06:37.146Z,9.77
2019-03-31T15:09:07.536Z,10.13
2019-03-31T15:11:36.322Z,10.33
2019-03-31T15:14:05.187Z,11.30
2019-03-31T15:16:34.011Z,8.60
2019-03-31T15:19:02.818Z,8.70
2019-03-31T15:21:31.599Z,11.23
2019-03-31T15:24:00.418Z,9.40
2019-03-31T15:26:29.212Z,11.27
2019-03-31T15:28:57.987Z,8.80
2019-03-31T15:31:26.690Z,7.80
2019-03-31T15:33:55.422Z,6.67
2019-03-31T15:36:24.132Z,8.40
2019-03-31T15:38:52.931Z,7.33
2019-03-31T15:41:21.738Z,7.00
2019-03-31T15:43:50.534Z,7.17
2019-03-31T15:46:19.281Z,7.67
2019-03-31T15:48:47.999Z,9.53
2019-03-31T15:51:16.824Z,7.63
2019-03-31T15:53:45.674Z,7.83
2019-03-31T15:56:14.508Z,7.93
2019-03-31T15:58:43.283Z,8.73
2019-03-31T16:01:12.096Z,8.50
2019-03-31T16:03:40.826Z,6.87
2019-03-31T16:06:09.556Z,7.80
2019-03-31T16:08:38.274Z,7.57
2019-03-31T16:11:07.076Z,7.53
2019-03-31T16:13:35.840Z,7.63
2019-03-31T16:16:04.736Z,6.13
2019-03-31T16:18:33.533Z,6.63
2019-03-31T16:21:02.253Z,5.23
2019-03-31T16:23:31.023Z,7.07
2019-03-31T16:25:59.906Z,5.60
2019-03-31T16:28:28.812Z,5.63
2019-03-31T16:30:57.690Z,4.80
2019-03-31T16:33:28.686Z,5.03
2019-03-31T16:35:57.622Z,6.03
2019-03-31T16:38:26.563Z,5.67
2019-03-31T16:40:55.415Z,5.87
2019-03-31T16:43:24.182Z,5.40
2019-03-31T16:45:52.966Z,4.97
2019-03-31T16:48:21.780Z,5.00
2019-03-31T16:50:50.638Z,5.23
2019-03-31T16:53:19.494Z,4.07
2019-03-31T16:55:48.211Z,6.63
2019-03-31T16:58:16.957Z,5.80
2019-03-31T17:00:45.734Z,4.83
2019-03-31T17:03:17.957Z,5.83
2019-03-31T17:05:44.940Z,5.67
2019-03-31T17:08:13.769Z,5.43
2019-03-31T17:10:42.563Z,5.77
2019-03-31T17:13:11.394Z,4.90
2019-03-31T17:15:40.158Z,3.90
2019-03-31T17:18:08.901Z,4.73
2019-03-31T17:20:38.766Z,3.80
2019-03-31T17:23:07.552Z,4.10
2019-03-31T17:25:37.176Z,4.27
2019-03-31T17:28:06.033Z,3.63
2019-03-31T17:30:34.947Z,4.00
2019-03-31T17:33:03.795Z,3.23
2019-03-31T17:35:32.534Z,3.40
2019-03-31T17:38:01.340Z,3.43
2019-03-31T17:40:30.275Z,3.23
2019-03-31T17:42:58.979Z,4.00
2019-03-31T17:45:27.715Z,3.90
2019-03-31T17:47:56.508Z,4.03
2019-03-31T17:50:25.264Z,3.80
2019-03-31T17:52:54.054Z,4.07
2019-03-31T17:55:22.799Z,4.10
2019-03-31T17:57:51.574Z,3.57
2019-03-31T18:00:20.329Z,3.97
2019-03-31T18:02:49.107Z,4.30
2019-03-31T18:05:17.984Z,4.07
2019-03-31T18:07:46.736Z,4.73
2019-03-31T18:10:21.241Z,3.70
2019-03-31T18:12:46.145Z,4.80
2019-03-31T18:15:15.013Z,4.97
2019-03-31T18:17:44.061Z,5.20
2019-03-31T18:20:13.058Z,4.77
2019-03-31T18:22:41.768Z,5.13
2019-03-31T18:25:11.868Z,4.77
2019-03-31T18:27:40.783Z,6.03
2019-03-31T18:30:09.956Z,4.80
2019-03-31T18:32:38.823Z,4.17
2019-03-31T18:35:07.674Z,4.93
2019-03-31T18:37:36.427Z,5.47
2019-03-31T18:40:06.642Z,4.90
2019-03-31T18:42:35.378Z,4.27
2019-03-31T18:45:06.080Z,4.77
2019-03-31T18:47:34.902Z,5.10
2019-03-31T18:50:05.664Z,4.00
2019-03-31T18:52:34.543Z,4.30
2019-03-31T18:55:04.485Z,4.23
2019-03-31T18:57:33.224Z,4.50
2019-03-31T19:00:03.456Z,4.37
2019-03-31T19:02:32.239Z,3.87
2019-03-31T19:05:01.021Z,3.67
2019-03-31T19:07:29.891Z,3.20
2019-03-31T19:10:01.326Z,4.30
2019-03-31T19:12:30.055Z,3.57
2019-03-31T19:14:58.840Z,4.20
2019-03-31T19:17:27.626Z,4.27
2019-03-31T19:19:56.411Z,3.70
2019-03-31T19:22:25.278Z,4.20
2019-03-31T19:24:53.975Z,2.77
2019-03-31T19:27:22.759Z,4.13
2019-03-31T19:29:51.697Z,4.10
2019-03-31T19:32:20.471Z,3.40
2019-03-31T19:34:49.226Z,3.53
2019-03-31T19:37:18.026Z,3.58
2019-03-31T19:39:46.758Z,3.90
2019-03-31T19:42:15.627Z,3.03
2019-03-31T19:44:44.488Z,3.53
2019-03-31T19:47:13.188Z,3.00
2019-03-31T19:49:41.975Z,3.07
2019-03-31T19:52:10.815Z,3.23
2019-03-31T19:54:39.848Z,3.43
2019-03-31T19:57:11.893Z,2.70
2019-03-31T19:59:39.578Z,2.10
2019-03-31T20:02:08.328Z,3.50
2019-03-31T20:04:39.027Z,2.17
2019-03-31T20:07:08.032Z,3.50
2019-03-31T20:09:36.829Z,2.40
2019-03-31T20:12:05.575Z,3.23
2019-03-31T20:14:34.499Z,2.80
2019-03-31T20:17:03.268Z,3.03
2019-03-31T20:19:32.000Z,2.63
2019-03-31T20:22:00.786Z,2.80
2019-03-31T20:24:29.520Z,3.37
2019-03-31T20:26:58.254Z,2.70
2019-03-31T20:29:27.094Z,2.70
2019-03-31T20:31:55.800Z,2.73
2019-03-31T20:34:24.491Z,2.20
2019-03-31T20:36:53.224Z,2.63
2019-03-31T20:39:22.005Z,2.60
2019-03-31T20:41:50.726Z,2.63
2019-03-31T20:44:19.555Z,2.63
2019-03-31T20:46:48.304Z,3.13
2019-03-31T20:49:17.007Z,3.00
2019-03-31T20:51:45.803Z,2.93
2019-03-31T20:54:17.359Z,3.20
2019-03-31T20:56:46.123Z,2.50
2019-03-31T20:59:14.952Z,2.80
2019-03-31T21:01:43.822Z,3.20
2019-03-31T21:04:12.508Z,2.03
2019-03-31T21:06:41.231Z,2.50
2019-03-31T21:09:09.936Z,3.10
2019-03-31T21:11:38.687Z,2.93
2019-03-31T21:14:07.462Z,2.70
2019-03-31T21:16:36.160Z,2.43
2019-03-31T21:19:04.883Z,2.93
2019-03-31T21:21:33.587Z,3.30
2019-03-31T21:24:02.320Z,2.90
2019-03-31T21:26:31.025Z,2.80
2019-03-31T21:28:59.748Z,2.67
2019-03-31T21:31:28.447Z,2.80
2019-03-31T21:33:58.111Z,2.40
2019-03-31T21:36:26.809Z,2.50
2019-03-31T21:38:55.546Z,3.10
2019-03-31T21:41:24.307Z,2.97
2019-03-31T21:43:53.040Z,4.03
2019-03-31T21:46:21.764Z,3.20
2019-03-31T21:48:50.485Z,2.80
2019-03-31T21:51:19.184Z,3.60
2019-03-31T21:53:47.907Z,2.93
2019-03-31T21:56:16.622Z,2.77
2019-03-31T21:58:45.355Z,2.90
2019-03-31T22:01:14.400Z,2.60
2019-03-31T22:03:43.194Z,3.13
2019-03-31T22:06:12.029Z,3.13
2019-03-31T22:08:40.761Z,2.53
2019-03-31T22:11:09.301Z,2.80
2019-03-31T22:13:37.674Z,3.07
2019-03-31T22:16:05.941Z,1.93
2019-03-31T22:18:34.320Z,3.20
2019-03-31T22:21:02.597Z,2.17
2019-03-31T22:23:30.885Z,2.80
2019-03-31T22:25:59.159Z,2.27
2019-03-31T22:28:27.451Z,2.60
2019-03-31T22:30:55.879Z,1.80
2019-03-31T22:33:24.227Z,2.50
2019-03-31T22:35:52.610Z,1.80
2019-03-31T22:38:20.936Z,1.90
2019-03-31T22:40:49.234Z,2.60
2019-03-31T22:43:17.681Z,1.73
2019-03-31T22:45:46.037Z,1.60
2019-03-31T22:48:14.311Z,2.20
2019-03-31T22:50:42.594Z,2.20
2019-03-31T22:53:10.873Z,2.40
2019-03-31T22:55:39.185Z,2.63
2019-03-31T22:58:07.454Z,2.73
2019-03-31T23:00:35.740Z,2.80
2019-03-31T23:03:04.088Z,2.90
2019-03-31T23:05:32.389Z,2.40
2019-03-31T23:08:00.667Z,1.77
2019-03-31T23:10:28.969Z,1.80
2019-03-31T23:12:57.241Z,2.03
2019-03-31T23:15:25.549Z,2.10
2019-03-31T23:17:53.830Z,2.43
2019-03-31T23:20:22.128Z,2.50
2019-03-31T23:22:50.395Z,2.03
2019-03-31T23:25:18.708Z,2.00
2019-03-31T23:27:46.979Z,2.20
2019-03-31T23:30:15.322Z,2.80
2019-03-31T23:32:43.700Z,2.10
2019-03-31T23:35:11.969Z,2.37
2019-03-31T23:37:40.289Z,2.17
2019-03-31T23:40:08.634Z,2.00
2019-03-31T23:42:36.940Z,2.20
2019-03-31T23:45:05.277Z,1.50
2019-03-31T23:47:33.584Z,2.13
2019-03-31T23:50:01.848Z,1.87
2019-03-31T23:52:30.167Z,3.17
2019-03-31T23:54:58.431Z,1.73
2019-03-31T23:57:26.807Z,2.93
2019-03-31T23:59:55.085Z,2.27
